Latest Weather Observations for Esperance

IDW60801

Issued at 7:05 pm WST Tuesday 16 September 2014 (issued every 30 minutes, with the page automatically refreshed every 10 minutes)

About weather observations | Map of weather stations | Latest weather observations for WA | Other Formats
Station Details ID: 009789 Name: ESPERANCE Lat: -33.83 Lon: 121.89 Height: 25.0 m
Data from the previous 72 hours. | See also: Recent months at Esperance
Date/Time
WST
Temp
°C
App
Temp
°C
Dew
Point
Rel
Hum
%
Delta-T
°C
Wind Press
QNH
hPa
Press
MSL
hPa
Rain
since 9 am
mm
Dir
 
Spd
km/h
Gust
km/h
Spd
kts
Gust
kts
16/07:00pm 14.4 10.3 7.7 64 3.3 ESE 19 28 10 15 1022.0 1022.0 0.0
16/06:30pm 14.6 10.2 7.5 62 3.5 ESE 20 32 11 17 1021.7 1021.7 0.0
16/06:00pm 14.9 10.1 7.4 61 3.7 ESE 22 30 12 16 1021.5 1021.5 0.0
16/05:30pm 15.3 10.6 7.6 60 3.8 ESE 22 30 12 16 1021.4 1021.4 0.0
16/05:00pm 15.6 10.5 7.5 58 4.0 SE 24 32 13 17 1021.1 1021.1 0.0
16/04:30pm 15.9 10.4 7.7 58 4.1 SE 26 33 14 18 1021.0 1021.0 0.0
16/04:00pm 16.4 11.3 7.8 56 4.3 SSE 24 32 13 17 1020.9 1020.9 0.0
16/03:30pm 16.6 12.4 8.3 58 4.2 SE 20 30 11 16 1020.9 1020.9 0.0
16/03:00pm 16.4 11.2 7.3 55 4.5 SE 24 30 13 16 1021.0 1021.0 0.0
16/02:30pm 16.8 11.8 6.6 51 5.0 SE 22 30 12 16 1021.4 1021.4 0.0
16/02:00pm 17.1 12.1 6.5 49 5.2 SSE 22 28 12 15 1021.6 1021.6 0.0
16/01:30pm 16.6 11.5 5.8 49 5.2 SE 22 32 12 17 1021.8 1021.8 0.0
16/01:00pm 17.0 12.4 6.4 49 5.2 SE 20 28 11 15 1021.8 1021.8 0.0
16/12:30pm 16.7 12.0 6.2 50 5.1 SE 20 30 11 16 1022.1 1022.1 0.0
16/12:00pm 16.8 12.6 5.8 48 5.3 SSE 17 22 9 12 1022.7 1022.7 0.0
16/11:30am 16.8 13.3 5.3 46 5.5 SE 13 19 7 10 1023.1 1023.1 0.0
16/11:00am 16.8 13.0 5.6 47 5.4 SE 15 19 8 10 1023.5 1023.5 0.0
16/10:30am 16.3 12.9 5.9 50 5.0 SSE 13 17 7 9 1024.0 1024.0 0.0
16/10:00am 16.4 13.4 5.8 49 5.1 SE 11 19 6 10 1024.2 1024.2 0.0
16/09:30am 17.2 14.9 5.6 46 5.6 NNE 7 13 4 7 1024.3 1024.3 0.0
16/09:00am 16.4 13.5 6.3 51 4.9 NNE 11 19 6 10 1024.1 1024.1 0.6
16/08:30am 15.0 13.1 8.9 67 3.1 N 9 15 5 8 1024.2 1024.2 0.6
16/08:00am 12.8 11.0 9.6 81 1.6 N 9 11 5 6 1024.2 1024.2 0.6
16/07:30am 11.3 9.8 9.1 86 1.1 N 7 9 4 5 1024.1 1024.1 0.6
16/07:00am 9.7 9.5 9.1 96 0.3 CALM 0 0 0 0 1023.9 1023.9 0.6
16/06:30am 8.8 8.3 8.0 95 0.4 CALM 0 4 0 2 1023.7 1023.7 0.6
16/06:00am 8.7 7.8 7.9 95 0.4 NNE 2 7 1 4 1023.5 1023.5 0.6
16/05:30am 8.3 7.7 7.4 94 0.4 CALM 0 0 0 0 1023.4 1023.4 0.6
16/05:00am 8.5 8.1 8.1 97 0.2 CALM 0 6 0 3 1023.5 1023.5 0.6
16/04:30am 8.1 6.3 7.9 99 0.1 NNW 7 9 4 5 1023.4 1023.4 0.6
16/04:00am 8.0 6.2 7.8 99 0.1 N 7 7 4 4 1023.4 1023.4 0.6
16/03:30am 8.7 7.2 8.3 97 0.2 N 6 7 3 4 1023.4 1023.4 0.6
16/03:00am 8.7 7.5 7.9 95 0.4 N 4 6 2 3 1023.4 1023.4 0.6
16/02:30am 9.3 8.2 8.5 95 0.4 N 4 7 2 4 1023.4 1023.4 0.6
16/02:00am 8.9 7.3 8.1 95 0.4 WNW 6 7 3 4 1023.6 1023.6 0.6
16/01:30am 8.8 7.1 8.2 96 0.3 WNW 7 9 4 5 1023.8 1023.8 0.6
16/01:00am 9.7 8.0 8.2 90 0.7 NNW 7 9 4 5 1024.0 1024.0 0.6
16/12:30am 9.8 8.2 8.6 92 0.6 N 7 9 4 5 1024.1 1024.1 0.6
16/12:00am 9.9 8.3 8.7 92 0.6 N 7 11 4 6 1024.1 1024.1 0.6
 
Date/Time
WST
Temp
°C
App
Temp
°C
Dew
Point
Rel
Hum
%
Delta-T
°C
Wind Press
QNH
hPa
Press
MSL
hPa
Rain
since 9 am
mm
Dir
 
Spd
km/h
Gust
km/h
Spd
kts
Gust
kts
15/11:30pm 10.3 8.7 8.9 91 0.7 N 7 11 4 6 1024.1 1024.1 0.6
15/11:00pm 10.9 9.0 9.1 89 0.9 NNE 9 11 5 6 1024.3 1024.3 0.6
15/10:30pm 10.8 9.2 8.8 87 1.0 NE 7 9 4 5 1024.6 1024.6 0.6
15/10:00pm 11.4 9.9 9.0 85 1.2 NNE 7 9 4 5 1024.7 1024.7 0.6
15/09:30pm 11.7 10.2 9.1 84 1.3 NNE 7 9 4 5 1025.0 1025.0 0.6
15/09:00pm 13.1 11.2 9.1 77 2.0 ESE 9 15 5 8 1025.2 1025.2 0.6
15/08:30pm 14.0 11.2 8.6 70 2.7 SE 13 17 7 9 1025.2 1025.2 0.6
15/08:00pm 13.9 11.7 9.4 74 2.3 SE 11 17 6 9 1025.0 1025.0 0.6
15/07:30pm 14.2 11.1 8.8 70 2.7 SSE 15 22 8 12 1025.0 1025.0 0.6
15/07:00pm 14.4 10.9 8.6 68 2.9 SSE 17 22 9 12 1024.7 1024.7 0.6
15/06:30pm 14.3 11.1 8.5 68 2.9 SSE 15 20 8 11 1024.5 1024.5 0.6
15/06:00pm 14.2 11.5 8.8 70 2.7 SE 13 19 7 10 1024.2 1024.2 0.6
15/05:30pm 14.4 11.2 8.6 68 2.9 SSE 15 20 8 11 1023.9 1023.9 0.6
15/05:00pm 15.0 11.6 9.1 68 3.0 SE 17 24 9 13 1023.8 1023.8 0.6
15/04:30pm 15.5 12.1 9.3 66 3.2 SSE 17 24 9 13 1023.5 1023.5 0.6
15/04:00pm 15.8 12.9 9.6 66 3.2 SSE 15 20 8 11 1023.6 1023.6 0.6
15/03:30pm 15.6 11.7 9.4 66 3.2 SSE 20 24 11 13 1023.5 1023.5 0.6
15/03:00pm 16.0 13.5 10.9 72 2.7 SSE 15 22 8 12 1023.5 1023.5 0.6
15/02:30pm 14.5 11.7 11.5 82 1.6 SE 17 24 9 13 1023.7 1023.7 0.6
15/02:00pm 14.4 11.3 12.2 87 1.2 SSE 20 26 11 14 1023.7 1023.7 0.6
15/01:30pm 13.3 10.2 12.2 93 0.6 SSE 20 32 11 17 1024.0 1024.0 0.6
15/01:00pm 13.8 10.8 12.7 93 0.6 SSE 20 28 11 15 1024.0 1024.0 0.0
15/12:51pm 14.2 10.6 12.0 87 1.2 S 22 32 12 17 1024.0 1024.0 0.0
15/12:30pm 14.6 10.1 11.4 81 1.7 S 26 35 14 19 1024.0 1024.0 0.0
15/12:00pm 15.8 12.1 11.5 75 2.3 S 22 32 12 17 1024.0 1024.0 0.0
15/11:30am 16.5 14.9 11.7 73 2.6 SSW 11 20 6 11 1024.2 1024.2 0.0
15/11:00am 17.7 17.5 9.0 56 4.5 CALM 0 6 0 3 1024.6 1024.6 0.0
15/10:30am 17.2 14.7 8.4 56 4.5 NNW 11 17 6 9 1024.8 1024.8 0.0
15/10:00am 16.7 13.2 7.2 53 4.7 NW 15 20 8 11 1025.0 1025.0 0.0
15/09:30am 15.8 12.9 8.0 60 3.9 NW 13 17 7 9 1025.2 1025.2 0.0
15/09:00am 15.3 12.4 8.1 62 3.6 WNW 13 17 7 9 1025.5 1025.5 0.0
15/08:30am 13.3 10.8 8.0 70 2.6 WNW 11 15 6 8 1025.6 1025.6 0.0
15/08:00am 11.9 9.7 8.0 77 1.9 NW 9 15 5 8 1025.3 1025.3 0.0
15/07:30am 10.5 8.1 7.1 79 1.6 W 9 13 5 7 1025.2 1025.2 0.0
15/07:00am 10.3 7.9 7.1 80 1.5 WNW 9 13 5 7 1025.0 1025.0 0.0
15/06:30am 9.0 5.7 6.6 85 1.1 NNW 13 17 7 9 1024.8 1024.8 0.0
15/06:00am 8.1 5.6 6.6 90 0.7 WNW 9 13 5 7 1024.9 1024.9 0.0
15/05:30am 7.5 5.0 6.4 93 0.5 NW 9 13 5 7 1024.7 1024.7 0.0
15/05:00am 7.1 4.1 6.2 94 0.4 NW 11 13 6 7 1024.4 1024.4 0.0
15/04:30am 6.9 4.2 5.5 91 0.6 W 9 13 5 7 1024.2 1024.2 0.0
15/04:00am 7.1 4.9 6.0 93 0.5 W 7 11 4 6 1024.0 1024.0 0.0
15/03:30am 7.9 6.0 6.6 91 0.6 WNW 6 7 3 4 1023.8 1023.8 0.0
15/03:00am 8.0 5.6 6.9 93 0.5 WNW 9 9 5 5 1023.7 1023.7 0.0
15/02:30am 8.0 5.5 6.7 91 0.6 WNW 9 11 5 6 1023.9 1023.9 0.0
15/02:00am 7.9 5.4 6.6 91 0.6 W 9 11 5 6 1023.8 1023.8 0.0
15/01:30am 8.9 7.0 7.4 90 0.7 WNW 7 9 4 5 1023.7 1023.7 0.0
15/01:00am 8.8 6.8 7.3 90 0.7 NNW 7 11 4 6 1023.7 1023.7 0.0
15/12:30am 9.5 6.4 7.4 87 1.0 N 13 17 7 9 1023.6 1023.6 0.0
15/12:00am 9.8 7.7 8.1 89 0.8 N 9 11 5 6 1023.6 1023.6 0.0
 
Date/Time
WST
Temp
°C
App
Temp
°C
Dew
Point
Rel
Hum
%
Delta-T
°C
Wind Press
QNH
hPa
Press
MSL
hPa
Rain
since 9 am
mm
Dir
 
Spd
km/h
Gust
km/h
Spd
kts
Gust
kts
14/11:30pm 9.8 7.6 7.7 87 1.0 N 9 11 5 6 1023.8 1023.8 0.0
14/11:00pm 10.1 7.6 8.0 87 1.0 N 11 15 6 8 1023.7 1023.7 0.0
14/10:30pm 10.2 8.2 8.6 90 0.8 N 9 13 5 7 1023.8 1023.8 0.0
14/10:00pm 10.9 9.3 8.7 86 1.1 N 7 9 4 5 1024.1 1024.1 0.0
14/09:30pm 11.0 9.5 9.2 89 0.9 N 7 11 4 6 1024.3 1024.3 0.0
14/09:00pm 11.8 10.4 9.4 85 1.2 N 7 9 4 5 1024.4 1024.4 0.0
14/08:30pm 12.3 10.7 8.9 80 1.7 NNE 7 7 4 4 1024.4 1024.4 0.0
14/08:00pm 12.3 11.0 9.3 82 1.5 NNE 6 7 3 4 1024.3 1024.3 0.0
14/07:30pm 13.0 11.4 8.8 75 2.1 NNE 7 9 4 5 1023.9 1023.9 0.0
14/07:00pm 14.2 12.2 8.6 69 2.8 E 9 11 5 6 1023.5 1023.5 0.0
14/06:30pm 14.3 12.3 8.7 69 2.8 ESE 9 9 5 5 1023.3 1023.3 0.0
14/06:00pm 14.6 13.0 8.6 67 3.0 ESE 7 9 4 5 1023.3 1023.3 0.0
14/05:30pm 15.0 13.0 8.7 66 3.2 SE 9 11 5 6 1023.1 1023.1 0.0
14/05:00pm 15.6 12.7 8.0 60 3.8 SSE 13 17 7 9 1022.8 1022.8 0.0
14/04:30pm 16.0 13.1 8.0 59 4.0 S 13 17 7 9 1022.6 1022.6 0.0
14/04:00pm 16.1 13.0 7.4 56 4.3 S 13 19 7 10 1022.4 1022.4 0.0
14/03:30pm 16.5 12.7 7.7 56 4.4 SSE 17 22 9 12 1022.2 1022.2 0.0
14/03:00pm 16.9 13.1 7.5 54 4.7 S 17 22 9 12 1022.0 1022.0 0.0
14/02:30pm 17.5 14.0 7.3 51 5.1 S 15 20 8 11 1021.8 1021.8 0.0
14/02:00pm 17.7 14.1 6.8 49 5.4 S 15 22 8 12 1021.8 1021.8 0.0
14/01:30pm 17.5 13.3 5.7 46 5.7 S 17 24 9 13 1021.8 1021.8 0.0
14/01:00pm 17.6 13.4 5.9 46 5.7 S 17 24 9 13 1021.7 1021.7 0.0
14/12:30pm 17.8 15.8 7.0 49 5.4 SSE 7 13 4 7 1021.9 1021.9 0.0
14/12:00pm 17.9 14.7 6.8 48 5.5 S 13 19 7 10 1022.1 1022.1 0.0
14/11:30am 17.0 13.5 7.4 53 4.8 S 15 20 8 11 1022.2 1022.2 0.0
14/11:00am 17.6 14.2 5.9 46 5.7 SSW 13 19 7 10 1022.5 1022.5 0.0
14/10:30am 17.1 14.4 7.5 53 4.8 SSW 11 20 6 11 1022.7 1022.7 0.0
14/10:00am 16.5 12.9 6.7 52 4.8 S 15 24 8 13 1022.8 1022.8 0.0
14/09:30am 16.3 12.8 7.2 55 4.5 S 15 24 8 13 1022.7 1022.7 0.0
14/09:00am 15.8 12.7 7.1 56 4.3 S 13 20 7 11 1022.8 1022.8 0.0
14/08:30am 15.9 12.9 7.7 58 4.1 S 13 20 7 11 1022.8 1022.8 0.0
14/08:00am 13.9 12.4 9.2 73 2.4 NW 7 9 4 5 1022.7 1022.7 0.0
14/07:30am 12.6 10.6 8.6 76 2.0 WNW 9 11 5 6 1022.5 1022.5 0.0
14/07:00am 13.0 11.3 8.4 73 2.3 SW 7 9 4 5 1022.2 1022.2 0.0
14/06:30am 12.5 10.8 8.2 75 2.1 W 7 11 4 6 1021.6 1021.6 0.0
14/06:00am 12.8 10.7 8.1 73 2.3 SW 9 11 5 6 1021.3 1021.3 0.0
14/05:30am 12.8 10.5 7.4 69 2.6 SW 9 13 5 7 1020.9 1020.9 0.0
14/05:00am 13.5 11.1 6.9 64 3.2 SW 9 13 5 7 1020.8 1020.8 0.0
14/04:30am 13.8 10.6 6.7 62 3.4 SW 13 20 7 11 1020.6 1020.6 0.0
14/04:00am 14.0 11.2 7.0 62 3.4 S 11 15 6 8 1020.0 1019.9 0.0
14/03:30am 14.1 10.8 6.6 60 3.6 S 13 20 7 11 1020.1 1020.0 0.0
14/03:00am 13.6 11.4 7.7 67 2.9 SSW 9 15 5 8 1020.0 1019.9 0.0
14/02:30am 13.3 10.6 7.3 67 2.9 SW 11 15 6 8 1020.1 1020.0 0.0
14/02:00am 13.1 10.6 8.3 72 2.4 SW 11 17 6 9 1020.2 1020.2 0.0
14/01:30am 13.2 10.4 8.6 73 2.3 SW 13 19 7 10 1020.5 1020.5 0.0
14/01:00am 13.2 10.8 8.6 73 2.3 SW 11 17 6 9 1020.9 1020.9 0.0
14/12:30am 13.3 10.5 8.5 72 2.4 SW 13 20 7 11 1021.0 1021.0 0.0
14/12:00am 13.3 10.4 8.0 70 2.6 SW 13 19 7 10 1021.1 1021.1 0.0
 
Date/Time
WST
Temp
°C
App
Temp
°C
Dew
Point
Rel
Hum
%
Delta-T
°C
Wind Press
QNH
hPa
Press
MSL
hPa
Rain
since 9 am
mm
Dir
 
Spd
km/h
Gust
km/h
Spd
kts
Gust
kts
13/11:30pm 13.4 10.3 7.2 66 3.0 WSW 13 17 7 9 1021.2 1021.2 0.0
13/11:00pm 13.5 10.4 7.1 65 3.1 WSW 13 19 7 10 1021.2 1021.2 0.0
13/10:30pm 13.8 10.4 7.5 66 3.1 WSW 15 20 8 11 1021.3 1021.3 0.0
13/10:00pm 14.2 11.2 7.5 64 3.3 WSW 13 19 7 10 1021.4 1021.4 0.0
13/09:30pm 14.5 11.6 8.3 66 3.1 WSW 13 19 7 10 1021.6 1021.6 0.0
13/09:00pm 14.5 11.2 8.1 65 3.2 WSW 15 20 8 11 1021.7 1021.7 0.0
13/08:30pm 14.6 11.1 7.2 61 3.6 WSW 15 22 8 12 1021.7 1021.7 0.0
13/08:00pm 14.6 10.7 7.0 60 3.7 WSW 17 26 9 14 1021.7 1021.7 0.0
13/07:30pm 14.5 11.5 7.8 64 3.3 SW 13 26 7 14 1021.5 1021.5 0.0

Other Formats:

Comma delimited format used in spreadsheet applications
http://www.bom.gov.au/fwo/IDW60801/IDW60801.94638.axf

JavaScript Object Notation format (JSON) in row-major order
http://www.bom.gov.au/fwo/IDW60801/IDW60801.94638.json